Time;durP1;ratioP1;P1;durP2;ratioP2;P2;SDS_P1;SDS_P2;PMS_P1;PMS_P2;Temp;Humidity;BMP_temperature;BMP_pressure;BME280_temperature;BME280_humidity;BME280_pressure;Samples;Min_cycle;Max_cycle;Signal;HPM_P1;HPM_P2
2023/03/07 00:00:43;;;;;;;6.72;3.08;;;5.80;99.90;;;;;;4878188;29;20044;-40
2023/03/07 00:03:14;;;;;;;5.50;2.85;;;5.80;99.90;;;;;;4860695;29;20033;-40
2023/03/07 00:05:40;;;;;;;6.25;3.03;;;5.80;99.90;;;;;;4874590;29;20039;-35
2023/03/07 00:08:06;;;;;;;8.93;2.83;;;5.70;99.90;;;;;;4882492;29;20406;-41
2023/03/07 00:10:32;;;;;;;6.25;2.50;;;5.80;99.90;;;;;;4883222;29;20062;-40
2023/03/07 00:12:58;;;;;;;6.40;2.35;;;5.80;99.90;;;;;;4888238;29;20370;-42
2023/03/07 00:15:23;;;;;;;6.70;2.60;;;5.80;99.90;;;;;;4882854;29;20053;-41
2023/03/07 00:17:49;;;;;;;4.47;2.53;;;5.80;99.90;;;;;;4863080;29;20036;-40
2023/03/07 00:20:15;;;;;;;13.43;2.88;;;5.70;99.90;;;;;;4872973;29;20041;-43
2023/03/07 00:22:42;;;;;;;5.28;2.33;;;5.80;99.90;;;;;;4875298;29;20085;-39
2023/03/07 00:25:09;;;;;;;10.37;2.97;;;5.80;99.90;;;;;;4879624;29;20486;-40
2023/03/07 00:27:34;;;;;;;12.70;3.00;;;5.80;99.90;;;;;;4874192;29;20356;-39
2023/03/07 00:30:03;;;;;;;9.05;2.17;;;5.80;99.90;;;;;;4878977;29;20577;-42
2023/03/07 00:32:29;;;;;;;8.77;2.40;;;5.80;99.90;;;;;;4881953;29;20021;-40
2023/03/07 00:34:56;;;;;;;3.67;2.22;;;5.80;99.90;;;;;;4881973;29;20021;-40
2023/03/07 00:37:22;;;;;;;8.32;2.72;;;5.80;99.90;;;;;;4881920;29;20153;-33
2023/03/07 00:39:47;;;;;;;9.73;2.90;;;5.90;99.90;;;;;;4881371;29;20077;-37
2023/03/07 00:42:13;;;;;;;12.32;2.30;;;5.90;99.90;;;;;;4881731;29;20088;-38
2023/03/07 00:44:39;;;;;;;9.68;2.63;;;5.90;99.90;;;;;;4872720;29;20033;-36
2023/03/07 00:47:05;;;;;;;6.13;2.58;;;5.90;99.90;;;;;;4892398;29;20145;-35
2023/03/07 00:49:31;;;;;;;8.88;3.05;;;5.90;99.90;;;;;;4881310;29;20566;-36
2023/03/07 00:51:56;;;;;;;3.70;2.55;;;5.90;99.90;;;;;;4880469;29;20033;-59
2023/03/07 00:54:22;;;;;;;6.60;2.42;;;5.90;99.90;;;;;;4881508;29;20037;-39
2023/03/07 00:56:47;;;;;;;17.15;2.70;;;5.90;99.90;;;;;;4880146;29;20415;-36
2023/03/07 00:59:13;;;;;;;11.65;3.72;;;5.90;99.90;;;;;;4881197;29;20040;-40
2023/03/07 01:01:40;;;;;;;6.50;2.75;;;5.90;99.90;;;;;;4881398;29;20536;-40
2023/03/07 01:04:06;;;;;;;8.20;3.38;;;5.90;99.90;;;;;;4881730;29;20040;-41
2023/03/07 01:06:32;;;;;;;10.95;3.67;;;5.90;99.90;;;;;;4880261;29;20037;-49
2023/03/07 01:09:01;;;;;;;5.93;3.38;;;5.80;99.90;;;;;;4879809;29;20597;-40
2023/03/07 01:11:28;;;;;;;6.55;2.33;;;5.80;99.90;;;;;;4881129;29;20493;-42
2023/03/07 01:13:56;;;;;;;6.65;2.70;;;5.70;99.90;;;;;;4860972;29;20426;-41
2023/03/07 01:16:26;;;;;;;3.58;2.20;;;5.40;99.90;;;;;;4878225;29;20446;-41
2023/03/07 01:18:55;;;;;;;6.93;2.50;;;5.30;99.90;;;;;;4880959;29;20549;-41
2023/03/07 01:21:24;;;;;;;8.07;2.45;;;5.20;99.90;;;;;;4878858;29;21386;-39
2023/03/07 01:23:50;;;;;;;11.30;2.40;;;5.20;99.90;;;;;;4880958;29;20041;-40
2023/03/07 01:26:24;;;;;;;5.68;2.65;;;5.20;99.90;;;;;;4879592;29;20509;-40
2023/03/07 01:28:55;;;;;;;8.68;1.85;;;5.20;99.90;;;;;;4879656;29;20044;-40
2023/03/07 01:31:21;;;;;;;13.85;2.10;;;5.10;99.90;;;;;;4873846;29;20047;-41
2023/03/07 01:33:48;;;;;;;5.40;2.13;;;5.10;99.90;;;;;;4880874;29;20490;-41
2023/03/07 01:36:24;;;;;;;11.57;1.75;;;5.00;99.90;;;;;;4862865;29;20506;-43
2023/03/07 01:38:53;;;;;;;6.18;2.00;;;5.00;99.90;;;;;;4879811;29;20029;-40
2023/03/07 01:41:19;;;;;;;6.85;2.75;;;5.00;99.90;;;;;;4880710;29;20048;-42
2023/03/07 01:43:46;;;;;;;8.70;1.85;;;5.00;99.90;;;;;;4879700;29;20029;-41
2023/03/07 01:46:18;;;;;;;3.72;1.55;;;5.00;99.90;;;;;;4862874;29;20485;-46
2023/03/07 01:48:46;;;;;;;5.82;1.88;;;5.00;99.90;;;;;;4879078;29;20071;-43
2023/03/07 01:51:12;;;;;;;3.60;1.67;;;5.00;99.90;;;;;;4879249;29;20438;-42
2023/03/07 01:53:38;;;;;;;5.25;1.75;;;5.00;99.90;;;;;;4879744;29;20498;-41
2023/03/07 01:56:06;;;;;;;8.25;1.80;;;5.00;99.90;;;;;;4878499;29;20032;-41
2023/03/07 01:58:33;;;;;;;3.53;1.33;;;5.00;99.90;;;;;;4880429;29;20032;-43
2023/03/07 02:00:59;;;;;;;9.82;1.20;;;5.10;99.90;;;;;;4877952;29;20033;-39
2023/03/07 02:03:47;;;;;;;8.98;2.00;;;5.10;99.90;;;;;;4862301;29;20101;-44
2023/03/07 02:06:13;;;;;;;;;;;5.10;99.90;;;;;;4878746;29;20064;-31
2023/03/07 02:08:40;;;;;;;3.00;1.25;;;5.10;99.90;;;;;;4880192;29;19947;-31
2023/03/07 02:11:06;;;;;;;7.20;1.30;;;5.10;99.90;;;;;;4878067;29;20044;-38
2023/03/07 02:13:32;;;;;;;6.63;1.38;;;5.10;99.90;;;;;;4880116;29;20115;-41
2023/03/07 02:16:01;;;;;;;6.70;1.05;;;5.00;99.90;;;;;;4879636;29;20426;-73
2023/03/07 02:18:33;;;;;;;2.35;1.05;;;5.00;99.90;;;;;;4879179;29;20031;-76
2023/03/07 02:20:59;;;;;;;6.45;2.45;;;5.00;99.90;;;;;;4879443;29;20064;-76
2023/03/07 02:23:33;;;;;;;6.50;0.88;;;5.10;99.90;;;;;;4878951;29;20383;-40
2023/03/07 02:26:23;;;;;;;2.80;1.25;;;5.10;99.90;;;;;;4879328;29;20041;-41
2023/03/07 02:28:49;;;;;;;9.98;1.17;;;5.10;99.90;;;;;;4878545;29;20040;-40
2023/03/07 02:31:14;;;;;;;5.63;1.25;;;5.20;99.90;;;;;;4879794;29;20493;-61
2023/03/07 02:33:40;;;;;;;6.05;1.35;;;5.20;99.90;;;;;;4863140;29;20481;-40
2023/03/07 02:36:10;;;;;;;5.80;1.30;;;5.20;99.90;;;;;;4877666;29;20084;-42
2023/03/07 02:38:38;;;;;;;1.67;0.95;;;5.30;99.90;;;;;;4879744;29;20025;-42
2023/03/07 02:41:05;;;;;;;6.78;1.33;;;5.30;99.90;;;;;;4879204;29;20081;-41
2023/03/07 02:43:31;;;;;;;8.00;1.77;;;5.30;99.90;;;;;;4879715;29;20033;-44
2023/03/07 02:45:56;;;;;;;10.30;1.30;;;5.30;99.90;;;;;;4878090;29;20032;-43
2023/03/07 02:48:22;;;;;;;4.05;0.90;;;5.30;99.90;;;;;;4879392;29;20052;-40
2023/03/07 02:50:48;;;;;;;6.57;1.48;;;5.30;99.90;;;;;;4878869;29;20029;-41
2023/03/07 02:53:14;;;;;;;4.25;1.55;;;5.30;99.90;;;;;;4879484;29;20021;-40
2023/03/07 02:55:40;;;;;;;16.05;1.63;;;5.30;99.90;;;;;;4877872;29;20053;-35
2023/03/07 02:58:06;;;;;;;11.02;1.90;;;5.30;99.90;;;;;;4878522;29;20093;-37
2023/03/07 03:00:31;;;;;;;6.82;1.30;;;5.30;99.90;;;;;;4861615;29;20574;-33
2023/03/07 03:02:57;;;;;;;10.98;2.20;;;5.30;99.90;;;;;;4879331;29;20029;-33
2023/03/07 03:05:23;;;;;;;4.32;1.83;;;5.30;99.90;;;;;;4878636;29;20033;-40
2023/03/07 03:07:48;;;;;;;12.57;1.63;;;5.40;99.90;;;;;;4878329;29;20037;-38
2023/03/07 03:10:14;;;;;;;9.35;1.55;;;5.40;99.90;;;;;;4877306;29;20040;-45
2023/03/07 03:12:40;;;;;;;7.05;1.33;;;5.50;99.90;;;;;;4884476;29;20035;-41
2023/03/07 03:15:06;;;;;;;7.25;1.58;;;5.50;99.90;;;;;;4891601;29;20112;-39
2023/03/07 03:17:32;;;;;;;10.05;1.60;;;5.50;99.90;;;;;;4878234;29;20025;-34
2023/03/07 03:19:58;;;;;;;9.57;1.38;;;5.50;99.90;;;;;;4878550;29;20031;-36
2023/03/07 03:22:23;;;;;;;7.88;1.60;;;5.50;99.90;;;;;;4879119;29;20025;-37
2023/03/07 03:24:49;;;;;;;6.63;1.30;;;5.50;99.90;;;;;;4878510;29;20108;-37
2023/03/07 03:27:15;;;;;;;8.60;1.10;;;5.50;99.90;;;;;;4878091;29;20108;-39
2023/03/07 03:29:41;;;;;;;6.05;1.25;;;5.50;99.90;;;;;;4879014;29;20104;-36
2023/03/07 03:32:06;;;;;;;8.77;1.60;;;5.50;99.90;;;;;;4879028;29;20372;-36
2023/03/07 03:34:32;;;;;;;8.30;1.60;;;5.50;99.90;;;;;;4878573;29;20021;-35
2023/03/07 03:36:58;;;;;;;6.22;1.52;;;5.50;99.90;;;;;;4877969;29;20029;-34
2023/03/07 03:39:24;;;;;;;5.43;1.50;;;5.50;99.90;;;;;;4878970;29;20036;-35
2023/03/07 03:41:50;;;;;;;5.05;1.17;;;5.60;99.90;;;;;;4880663;29;20402;-36
2023/03/07 03:44:16;;;;;;;9.48;2.33;;;5.60;99.90;;;;;;4882803;29;20029;-32
2023/03/07 03:46:41;;;;;;;4.68;1.13;;;5.60;99.90;;;;;;4881221;29;20467;-38
2023/03/07 03:49:07;;;;;;;15.60;2.00;;;5.50;99.90;;;;;;4882386;29;20060;-35
2023/03/07 03:51:32;;;;;;;2.25;1.50;;;5.50;99.90;;;;;;4881905;29;20068;-59
2023/03/07 03:53:58;;;;;;;9.98;1.95;;;5.50;99.90;;;;;;4882632;29;20526;-36
2023/03/07 03:56:25;;;;;;;3.40;1.33;;;5.50;99.90;;;;;;4881022;29;20029;-38
2023/03/07 03:58:54;;;;;;;6.97;1.55;;;5.50;99.90;;;;;;4882685;29;20104;-36
2023/03/07 04:01:22;;;;;;;3.10;1.75;;;5.60;99.90;;;;;;4882469;29;20124;-34
2023/03/07 04:03:50;;;;;;;5.65;1.60;;;5.60;99.90;;;;;;4882384;29;20061;-36
2023/03/07 04:06:22;;;;;;;5.95;2.53;;;5.70;99.90;;;;;;4881050;29;20477;-35
2023/03/07 04:08:48;;;;;;;8.75;1.98;;;5.70;99.90;;;;;;4882605;29;20035;-34
2023/03/07 04:11:14;;;;;;;6.45;1.60;;;5.70;99.90;;;;;;4880996;29;20025;-37
2023/03/07 04:13:40;;;;;;;11.18;2.78;;;5.80;99.90;;;;;;4882183;29;20033;-35
2023/03/07 04:16:06;;;;;;;6.00;1.65;;;5.80;99.90;;;;;;4880737;29;20027;-33
2023/03/07 04:18:33;;;;;;;11.30;2.28;;;5.80;99.90;;;;;;4865374;29;20104;-40
2023/03/07 04:20:59;;;;;;;12.10;2.65;;;5.80;99.90;;;;;;4881467;29;20037;-37
2023/03/07 04:23:24;;;;;;;2.30;1.23;;;5.70;99.90;;;;;;4882123;29;20113;-44
2023/03/07 04:25:55;;;;;;;9.32;1.35;;;5.60;99.90;;;;;;4880686;29;20022;-65
2023/03/07 04:28:23;;;;;;;7.75;1.55;;;5.50;99.90;;;;;;4882080;29;20462;-69
2023/03/07 04:30:49;;;;;;;6.47;2.15;;;5.50;99.90;;;;;;4881982;29;20514;-39
2023/03/07 04:33:15;;;;;;;12.50;1.35;;;5.30;99.90;;;;;;4881944;29;20109;-40
2023/03/07 04:35:41;;;;;;;4.35;1.33;;;5.20;99.90;;;;;;4879093;29;20112;-40
2023/03/07 04:38:07;;;;;;;4.97;1.25;;;5.20;99.90;;;;;;4881844;29;20490;-41
2023/03/07 04:40:34;;;;;;;8.35;1.15;;;5.00;99.90;;;;;;4882003;29;20025;-42
2023/03/07 04:43:00;;;;;;;5.90;0.90;;;4.90;99.90;;;;;;4881751;29;20124;-42
2023/03/07 04:45:26;;;;;;;3.50;1.25;;;4.90;99.90;;;;;;4880235;29;20454;-42
2023/03/07 04:47:52;;;;;;;1.83;0.70;;;4.90;99.90;;;;;;4864929;29;20569;-44
2023/03/07 04:50:19;;;;;;;3.10;0.50;;;4.90;99.90;;;;;;4880632;29;20132;-39
2023/03/07 04:52:45;;;;;;;5.82;1.00;;;4.70;99.90;;;;;;4881114;29;20037;-33
2023/03/07 04:55:11;;;;;;;0.82;0.20;;;4.60;99.90;;;;;;4879796;29;20394;-35
2023/03/07 04:57:37;;;;;;;4.07;0.88;;;4.60;99.90;;;;;;4881420;29;20112;-34
2023/03/07 05:00:08;;;;;;;9.40;1.08;;;4.60;99.90;;;;;;4881414;29;20528;-39
2023/03/07 05:02:34;;;;;;;2.92;0.45;;;4.60;99.90;;;;;;4881373;29;20119;-34
2023/03/07 05:05:00;;;;;;;2.17;0.68;;;4.60;99.90;;;;;;4879680;29;20037;-34
2023/03/07 05:07:28;;;;;;;5.68;1.05;;;4.60;99.90;;;;;;4880675;29;20041;-38
2023/03/07 05:09:54;;;;;;;5.70;0.60;;;4.60;99.90;;;;;;4863489;29;20502;-36
2023/03/07 05:12:21;;;;;;;1.65;0.40;;;4.50;99.90;;;;;;4872538;29;20031;-33
2023/03/07 05:14:46;;;;;;;2.20;0.30;;;4.50;99.90;;;;;;4880450;29;20033;-37
2023/03/07 05:17:12;;;;;;;4.75;0.57;;;4.50;99.90;;;;;;4881161;29;20546;-31
2023/03/07 05:19:38;;;;;;;0.63;0.50;;;4.40;99.90;;;;;;4862613;29;20468;-36
2023/03/07 05:22:03;;;;;;;3.75;0.73;;;4.30;99.90;;;;;;4880446;29;20492;-31
2023/03/07 05:24:29;;;;;;;7.20;0.60;;;4.20;99.90;;;;;;4864312;29;20044;-37
2023/03/07 05:26:54;;;;;;;1.40;0.77;;;4.20;99.90;;;;;;4880267;29;20108;-49
2023/03/07 05:29:20;;;;;;;3.83;0.50;;;4.20;99.90;;;;;;4879951;29;20107;-38
2023/03/07 05:31:46;;;;;;;1.33;0.22;;;4.20;99.90;;;;;;4880817;29;20426;-33
2023/03/07 05:34:12;;;;;;;5.93;0.45;;;4.20;99.90;;;;;;4880114;29;20482;-31
2023/03/07 05:36:37;;;;;;;4.75;0.40;;;4.10;99.90;;;;;;4880836;29;20549;-34
2023/03/07 05:39:04;;;;;;;1.45;0.35;;;4.10;99.90;;;;;;4863295;29;20108;-32
2023/03/07 05:41:29;;;;;;;4.40;0.47;;;3.90;99.90;;;;;;4880284;29;20482;-35
2023/03/07 05:43:55;;;;;;;1.60;0.25;;;3.70;99.90;;;;;;4878687;29;20035;-30
2023/03/07 05:46:21;;;;;;;5.40;0.57;;;3.60;99.90;;;;;;4879041;29;20056;-32
2023/03/07 05:48:46;;;;;;;3.03;0.60;;;3.50;99.90;;;;;;4880502;29;20390;-31
2023/03/07 05:51:12;;;;;;;1.13;0.32;;;3.40;99.90;;;;;;4879795;29;20076;-33
2023/03/07 05:53:38;;;;;;;0.95;0.40;;;3.40;99.90;;;;;;4879816;29;20064;-35
2023/03/07 05:56:04;;;;;;;1.75;0.68;;;3.30;99.90;;;;;;4878946;29;20024;-31
2023/03/07 05:58:29;;;;;;;1.05;0.47;;;3.20;99.90;;;;;;4863608;29;20085;-31
2023/03/07 06:00:55;;;;;;;1.67;0.65;;;3.00;99.90;;;;;;4880407;29;20033;-34
2023/03/07 06:03:21;;;;;;;1.65;0.40;;;2.90;99.90;;;;;;4880285;29;20033;-34
2023/03/07 06:05:49;;;;;;;0.30;0.30;;;2.80;99.90;;;;;;4878287;29;20081;-33
2023/03/07 06:08:15;;;;;;;9.77;1.27;;;2.70;99.90;;;;;;4880252;29;20108;-33
2023/03/07 06:10:41;;;;;;;1.92;0.50;;;2.70;99.90;;;;;;4880151;29;20181;-33
2023/03/07 06:13:17;;;;;;;0.82;0.60;;;2.60;99.90;;;;;;4889205;29;20481;-46
2023/03/07 06:15:43;;;;;;;6.15;0.85;;;2.50;99.90;;;;;;4880982;29;20025;-42
2023/03/07 06:18:09;;;;;;;0.20;0.20;;;2.50;99.90;;;;;;4862482;29;20035;-37
2023/03/07 06:20:35;;;;;;;0.55;0.30;;;2.50;99.90;;;;;;4879344;29;20037;-33
2023/03/07 06:23:01;;;;;;;2.00;0.43;;;2.40;99.90;;;;;;4879997;29;20037;-32
2023/03/07 06:25:27;;;;;;;4.65;0.73;;;2.40;99.90;;;;;;4878270;29;20044;-34
2023/03/07 06:27:58;;;;;;;7.28;0.40;;;2.40;99.90;;;;;;4879014;29;20482;-41
2023/03/07 06:30:24;;;;;;;11.55;0.57;;;2.40;99.90;;;;;;4863048;29;20090;-34
2023/03/07 06:32:49;;;;;;;3.72;0.57;;;2.40;99.90;;;;;;4879102;29;20482;-33
2023/03/07 06:35:15;;;;;;;1.95;0.98;;;2.30;99.90;;;;;;4878312;29;20053;-37
2023/03/07 06:37:41;;;;;;;1.33;0.40;;;2.30;99.90;;;;;;4876939;29;20025;-40
2023/03/07 06:40:08;;;;;;;1.60;0.70;;;2.30;99.90;;;;;;4879819;29;20037;-34
2023/03/07 06:42:34;;;;;;;10.80;0.88;;;2.30;99.90;;;;;;4858065;29;20040;-37
2023/03/07 06:45:00;;;;;;;1.83;0.73;;;2.30;99.90;;;;;;4874412;29;20048;-42
2023/03/07 06:47:25;;;;;;;3.70;1.13;;;2.30;99.90;;;;;;4879483;29;20032;-38
2023/03/07 06:49:52;;;;;;;3.97;0.90;;;2.40;99.90;;;;;;4877982;29;20053;-38
2023/03/07 06:52:18;;;;;;;10.20;1.23;;;2.40;99.90;;;;;;4878532;29;20470;-36
2023/03/07 06:54:44;;;;;;;10.52;1.02;;;2.40;99.90;;;;;;4879329;29;20550;-34
2023/03/07 06:57:09;;;;;;;3.40;0.65;;;2.40;99.90;;;;;;4874991;29;20029;-37
2023/03/07 06:59:35;;;;;;;1.80;0.50;;;2.40;99.90;;;;;;4879434;29;20471;-38
2023/03/07 07:02:02;;;;;;;2.50;0.75;;;2.40;99.90;;;;;;4854308;29;20034;-31
2023/03/07 07:04:28;;;;;;;9.80;1.57;;;2.40;99.90;;;;;;4862938;29;20172;-35
2023/03/07 07:06:54;;;;;;;8.38;1.40;;;2.50;99.90;;;;;;4878651;29;20065;-41
2023/03/07 07:09:19;;;;;;;7.15;2.05;;;2.50;99.90;;;;;;4879297;29;20037;-40
2023/03/07 07:12:13;;;;;;;3.30;1.10;;;2.50;99.90;;;;;;4877739;29;20395;-41
2023/03/07 07:14:38;;;;;;;6.88;1.17;;;2.50;99.90;;;;;;4868871;29;20474;-38
2023/03/07 07:17:04;;;;;;;4.78;1.75;;;2.50;99.90;;;;;;4875166;29;20025;-41
2023/03/07 07:19:30;;;;;;;3.25;1.05;;;2.50;99.90;;;;;;4877362;29;20107;-40
2023/03/07 07:21:56;;;;;;;1.17;0.65;;;2.50;99.90;;;;;;4881665;29;20043;-40
2023/03/07 07:24:22;;;;;;;3.33;0.90;;;2.40;99.90;;;;;;4898077;29;20037;-40
2023/03/07 07:26:48;;;;;;;6.82;1.42;;;2.30;99.90;;;;;;4878215;29;20060;-38
2023/03/07 07:29:14;;;;;;;5.00;1.20;;;2.40;99.90;;;;;;4878612;29;20500;-41
2023/03/07 07:31:40;;;;;;;7.32;1.30;;;2.40;99.90;;;;;;4878869;29;20112;-42
2023/03/07 07:34:06;;;;;;;1.23;0.95;;;2.40;99.90;;;;;;4881850;29;20060;-45
2023/03/07 07:36:33;;;;;;;3.92;1.30;;;2.50;99.90;;;;;;4876856;29;20084;-43
2023/03/07 07:39:03;;;;;;;5.22;1.15;;;2.50;99.90;;;;;;4861928;29;20033;-60
2023/03/07 07:41:30;;;;;;;5.68;1.15;;;2.60;99.90;;;;;;4876500;29;20081;-41
2023/03/07 07:43:56;;;;;;;2.80;0.85;;;2.60;99.90;;;;;;4861168;29;20063;-41
2023/03/07 07:46:22;;;;;;;4.70;0.85;;;2.70;99.90;;;;;;4875254;29;20053;-40
2023/03/07 07:48:48;;;;;;;4.32;1.15;;;2.70;99.90;;;;;;4877170;29;20036;-41
2023/03/07 07:51:14;;;;;;;9.77;2.22;;;2.70;99.90;;;;;;4875176;29;20041;-41
2023/03/07 07:53:39;;;;;;;2.35;1.00;;;2.60;99.90;;;;;;4879003;29;20037;-39
2023/03/07 07:56:05;;;;;;;7.88;1.00;;;2.60;99.90;;;;;;4878135;29;20577;-41
2023/03/07 07:58:31;;;;;;;4.63;1.15;;;2.60;99.90;;;;;;4877465;29;20474;-38
2023/03/07 08:00:57;;;;;;;2.67;0.85;;;2.70;99.90;;;;;;4876654;29;20025;-40
2023/03/07 08:03:23;;;;;;;0.65;0.65;;;2.80;99.90;;;;;;4877939;29;20453;-39
2023/03/07 08:05:49;;;;;;;4.03;0.82;;;2.90;99.90;;;;;;4876063;29;20096;-41
2023/03/07 08:08:16;;;;;;;3.20;0.95;;;2.90;99.90;;;;;;4874669;29;20076;-39
2023/03/07 08:10:44;;;;;;;1.48;1.08;;;3.00;99.90;;;;;;4877097;29;20089;-41
2023/03/07 08:13:15;;;;;;;6.90;0.80;;;3.00;99.90;;;;;;4876905;29;20509;-39
2023/03/07 08:15:41;;;;;;;1.33;1.10;;;3.10;99.90;;;;;;4878047;29;20474;-41
2023/03/07 08:18:09;;;;;;;3.72;1.27;;;3.20;99.90;;;;;;4878329;29;20033;-40
2023/03/07 08:20:40;;;;;;;5.38;1.05;;;3.30;99.90;;;;;;4873489;29;20029;-40
2023/03/07 08:23:06;;;;;;;1.30;0.90;;;3.30;99.90;;;;;;4863069;29;20097;-39
2023/03/07 08:25:31;;;;;;;1.60;1.10;;;3.30;99.90;;;;;;4870769;29;20120;-40
2023/03/07 08:27:57;;;;;;;4.13;1.10;;;3.30;99.90;;;;;;4880323;29;20578;-45
2023/03/07 08:30:25;;;;;;;4.35;1.58;;;3.40;99.90;;;;;;4882012;29;20486;-40
2023/03/07 08:32:52;;;;;;;4.38;1.30;;;3.40;99.90;;;;;;4880898;29;20032;-40
2023/03/07 08:35:18;;;;;;;3.90;1.33;;;3.40;99.90;;;;;;4880503;29;20530;-39
2023/03/07 08:37:44;;;;;;;7.70;1.33;;;3.40;99.90;;;;;;4881168;29;20037;-41
2023/03/07 08:40:10;;;;;;;2.38;1.30;;;3.40;99.90;;;;;;4881855;29;20048;-40
2023/03/07 08:42:36;;;;;;;5.72;1.77;;;3.30;99.90;;;;;;4880992;29;20529;-62
2023/03/07 08:45:02;;;;;;;6.68;1.25;;;3.40;99.90;;;;;;4881750;29;20064;-40
2023/03/07 08:47:28;;;;;;;4.03;1.30;;;3.40;99.90;;;;;;4881745;29;20033;-41
2023/03/07 08:49:54;;;;;;;5.50;1.65;;;3.50;99.90;;;;;;4879112;29;20053;-40
2023/03/07 08:52:20;;;;;;;6.25;2.10;;;3.50;99.90;;;;;;4863118;29;20363;-40
2023/03/07 08:54:45;;;;;;;12.02;2.00;;;3.60;99.90;;;;;;4875274;29;20492;-31
2023/03/07 08:57:11;;;;;;;2.20;1.60;;;3.70;99.90;;;;;;4879320;29;20104;-30
2023/03/07 08:59:37;;;;;;;9.02;1.50;;;3.70;99.90;;;;;;4880820;29;20021;-34
2023/03/07 09:02:02;;;;;;;3.42;1.30;;;3.70;99.90;;;;;;4876351;29;20032;-30
2023/03/07 09:04:28;;;;;;;3.47;1.63;;;3.70;99.90;;;;;;4875712;29;20037;-31
2023/03/07 09:06:55;;;;;;;4.10;1.73;;;3.70;99.90;;;;;;4874950;29;20049;-32
2023/03/07 09:09:21;;;;;;;1.65;1.25;;;3.80;99.90;;;;;;4875480;29;20036;-30
2023/03/07 09:11:47;;;;;;;5.28;1.40;;;3.80;99.90;;;;;;4879839;29;20040;-30
2023/03/07 09:14:13;;;;;;;7.47;1.40;;;3.90;99.90;;;;;;4880830;29;20029;-33
2023/03/07 09:16:38;;;;;;;5.93;1.38;;;4.00;99.90;;;;;;4881101;29;20036;-36
2023/03/07 09:19:04;;;;;;;2.15;1.45;;;4.00;99.90;;;;;;4880279;29;20434;-35
2023/03/07 09:21:30;;;;;;;4.97;1.65;;;4.00;99.90;;;;;;4880895;29;20414;-33
2023/03/07 09:23:56;;;;;;;6.95;2.03;;;4.00;99.90;;;;;;4864250;29;20081;-33
2023/03/07 09:26:22;;;;;;;1.83;1.23;;;4.10;99.90;;;;;;4878329;29;20091;-36
2023/03/07 09:28:47;;;;;;;4.63;1.30;;;4.20;99.90;;;;;;4858435;29;20060;-34
2023/03/07 09:31:15;;;;;;;2.88;1.10;;;4.20;99.90;;;;;;4878448;29;20025;-36
2023/03/07 09:33:41;;;;;;;5.20;1.42;;;4.30;99.90;;;;;;4875585;29;20116;-35
2023/03/07 09:36:10;;;;;;;4.82;2.17;;;4.30;99.90;;;;;;4880935;29;20105;-40
2023/03/07 09:38:36;;;;;;;5.82;1.45;;;4.30;99.90;;;;;;4879699;29;20029;-48
2023/03/07 09:41:34;;;;;;;3.53;1.38;;;4.30;99.90;;;;;;4880420;29;20040;-40
2023/03/07 09:44:44;;;;;;;5.47;1.35;;;4.40;99.90;;;;;;4856021;29;20053;-42
2023/03/07 09:47:35;;;;;;;6.18;1.30;;;4.50;99.90;;;;;;4861244;29;20045;-42
2023/03/07 09:50:08;;;;;;;7.18;1.15;;;4.50;99.90;;;;;;4880114;29;20053;-41
2023/03/07 09:52:38;;;;;;;6.18;1.30;;;4.60;99.90;;;;;;4880335;29;20029;-41
2023/03/07 09:55:19;;;;;;;1.50;1.40;;;4.80;99.90;;;;;;4880505;29;20025;-40
2023/03/07 09:57:50;;;;;;;1.10;0.90;;;4.90;99.90;;;;;;4880412;29;20029;-41
2023/03/07 10:00:21;;;;;;;2.05;1.23;;;5.00;99.90;;;;;;4879752;29;20116;-39
2023/03/07 10:02:55;;;;;;;3.42;1.95;;;5.10;99.90;;;;;;4880008;29;20033;-38
2023/03/07 10:05:40;;;;;;;3.63;0.95;;;5.10;99.90;;;;;;4877454;29;20032;-42
2023/03/07 10:08:14;;;;;;;6.55;1.17;;;5.00;99.90;;;;;;4878189;29;20045;-41
2023/03/07 10:11:05;;;;;;;3.83;1.50;;;5.00;99.90;;;;;;4880033;29;20549;-41
2023/03/07 10:13:34;;;;;;;1.83;1.25;;;5.00;99.90;;;;;;4840344;29;20549;-43
2023/03/07 10:16:19;;;;;;;3.95;1.30;;;5.00;99.90;;;;;;4891015;29;20040;-43
2023/03/07 10:19:12;;;;;;;4.38;1.17;;;5.00;99.90;;;;;;4883034;29;20025;-40
2023/03/07 10:21:49;;;;;;;3.88;1.20;;;5.00;99.90;;;;;;4874993;29;20041;-42
2023/03/07 10:24:22;;;;;;;2.47;1.23;;;4.90;99.90;;;;;;4879905;29;20112;-67
2023/03/07 10:27:07;;;;;;;5.68;1.25;;;5.00;99.90;;;;;;4859088;29;20025;-51
2023/03/07 10:30:00;;;;;;;2.03;1.08;;;4.90;99.90;;;;;;4879816;29;20029;-40
2023/03/07 10:32:47;;;;;;;3.72;0.63;;;5.00;99.90;;;;;;4877556;29;20068;-42
2023/03/07 10:35:23;;;;;;;2.90;0.60;;;4.80;99.90;;;;;;4862390;29;20451;-42
2023/03/07 10:37:57;;;;;;;1.15;0.35;;;4.80;99.90;;;;;;4879632;29;20035;-41
2023/03/07 10:40:47;;;;;;;4.28;0.63;;;4.70;99.90;;;;;;4879641;29;20049;-40
2023/03/07 10:43:22;;;;;;;1.85;0.40;;;4.60;99.90;;;;;;4871379;29;20037;-43
2023/03/07 10:45:48;;;;;;;2.47;0.80;;;4.50;99.90;;;;;;4879714;29;20037;-47
2023/03/07 10:48:18;;;;;;;8.45;1.25;;;4.30;99.90;;;;;;4879340;29;20089;-40
2023/03/07 10:51:34;;;;;;;4.70;0.80;;;4.10;99.90;;;;;;4878933;29;20045;-39
2023/03/07 10:54:01;;;;;;;4.72;1.00;;;4.00;99.90;;;;;;4821149;29;20402;-38
2023/03/07 10:56:26;;;;;;;3.88;0.40;;;3.80;99.90;;;;;;4860951;29;20025;-40
2023/03/07 10:59:10;;;;;;;1.88;0.30;;;3.80;99.90;;;;;;4861449;29;20498;-41
2023/03/07 11:01:53;;;;;;;2.58;0.60;;;3.70;99.90;;;;;;4878144;29;20093;-40
2023/03/07 11:04:26;;;;;;;0.77;0.55;;;3.70;99.90;;;;;;4844299;29;20627;-40
2023/03/07 11:06:54;;;;;;;1.10;0.32;;;3.70;99.90;;;;;;4861433;29;20108;-40
2023/03/07 11:09:27;;;;;;;2.78;0.60;;;3.80;99.90;;;;;;4878649;29;20040;-40
2023/03/07 11:11:58;;;;;;;3.75;0.45;;;3.80;99.90;;;;;;4879297;29;20066;-39
2023/03/07 11:14:26;;;;;;;7.03;0.30;;;3.80;99.90;;;;;;4862103;29;20085;-36
2023/03/07 11:16:55;;;;;;;3.20;0.43;;;3.80;99.90;;;;;;4874684;29;20025;-42
2023/03/07 11:19:34;;;;;;;4.53;0.73;;;3.80;99.90;;;;;;4877074;29;20077;-51
2023/03/07 11:22:03;;;;;;;1.15;0.52;;;3.80;99.90;;;;;;4878575;29;20025;-41
2023/03/07 11:24:34;;;;;;;1.73;0.30;;;3.80;99.90;;;;;;4878610;29;20049;-44
2023/03/07 11:27:00;;;;;;;5.88;0.45;;;3.60;99.90;;;;;;4875015;29;20112;-65
2023/03/07 11:29:32;;;;;;;2.58;0.35;;;3.70;99.90;;;;;;4879281;29;20481;-36
2023/03/07 11:32:10;;;;;;;7.32;2.45;;;3.80;99.90;;;;;;4877069;29;20029;-40
2023/03/07 11:34:39;;;;;;;4.03;1.20;;;3.90;99.90;;;;;;4878317;29;20100;-38
2023/03/07 11:37:32;;;;;;;4.72;0.47;;;4.10;99.90;;;;;;4878918;29;20029;-40
2023/03/07 11:40:22;;;;;;;0.70;0.52;;;4.20;99.90;;;;;;4879043;29;20029;-42
2023/03/07 11:43:03;;;;;;;1.75;0.85;;;4.40;99.90;;;;;;4876910;29;20032;-50
2023/03/07 11:45:44;;;;;;;1.38;0.30;;;4.60;99.90;;;;;;4860517;29;20026;-38
2023/03/07 11:48:17;;;;;;;7.60;0.60;;;4.50;99.90;;;;;;4860427;29;20089;-41
2023/03/07 11:50:52;;;;;;;1.42;0.63;;;4.50;99.90;;;;;;4876044;29;20045;-40
2023/03/07 11:53:33;;;;;;;6.25;0.60;;;4.60;99.90;;;;;;4878985;29;20088;-40
2023/03/07 11:56:23;;;;;;;2.92;0.43;;;4.70;99.90;;;;;;4878944;29;20093;-40
2023/03/07 11:59:11;;;;;;;5.25;0.47;;;4.50;99.90;;;;;;4879026;29;20064;-41
2023/03/07 12:01:39;;;;;;;5.53;0.45;;;3.90;99.90;;;;;;4878713;29;20076;-40
2023/03/07 12:04:26;;;;;;;0.20;0.20;;;3.50;99.90;;;;;;4895608;29;20028;-40
2023/03/07 12:07:22;;;;;;;2.20;0.32;;;3.40;99.90;;;;;;4898286;29;20033;-40
2023/03/07 12:10:15;;;;;;;0.75;0.30;;;3.20;99.90;;;;;;4882390;29;20108;-41
2023/03/07 12:12:56;;;;;;;0.95;0.30;;;3.20;99.90;;;;;;4882267;29;20508;-39
2023/03/07 12:15:40;;;;;;;4.22;0.57;;;3.10;99.90;;;;;;4882280;29;20031;-40
2023/03/07 12:18:28;;;;;;;1.08;0.32;;;3.10;99.90;;;;;;4881203;29;20093;-39
2023/03/07 12:21:26;;;;;;;2.50;0.45;;;3.10;99.90;;;;;;4872339;29;20109;-41
2023/03/07 12:24:00;;;;;;;0.80;0.30;;;3.10;99.90;;;;;;4840266;29;20048;-40
2023/03/07 12:26:45;;;;;;;4.45;0.50;;;3.10;99.90;;;;;;4881963;29;20584;-40
2023/03/07 12:29:36;;;;;;;1.48;0.63;;;3.20;99.90;;;;;;4882012;29;20112;-31
2023/03/07 12:32:09;;;;;;;6.55;0.63;;;3.30;99.90;;;;;;4885944;29;20075;-35
2023/03/07 12:35:22;;;;;;;0.80;0.47;;;3.40;99.90;;;;;;4866589;29;20029;-34
2023/03/07 12:38:01;;;;;;;0.57;0.52;;;3.50;99.90;;;;;;4845995;29;20037;-31
2023/03/07 12:40:40;;;;;;;4.50;0.65;;;3.40;99.90;;;;;;4880110;29;20132;-33
2023/03/07 12:43:32;;;;;;;4.35;0.40;;;3.40;99.90;;;;;;4863257;29;20061;-33
2023/03/07 12:46:20;;;;;;;2.17;0.68;;;3.40;99.90;;;;;;4866916;29;20779;-35
2023/03/07 12:48:59;;;;;;;5.78;0.50;;;3.50;99.90;;;;;;4880863;29;20039;-31
2023/03/07 12:51:31;;;;;;;6.43;0.50;;;3.50;99.90;;;;;;4880593;29;20459;-34
2023/03/07 12:54:07;;;;;;;2.20;0.52;;;3.60;99.90;;;;;;4882749;29;20025;-32
2023/03/07 12:56:59;;;;;;;3.45;0.45;;;3.60;99.90;;;;;;4880300;29;20032;-33
2023/03/07 12:59:26;;;;;;;5.72;0.80;;;3.60;99.90;;;;;;4879067;29;20029;-34
2023/03/07 13:02:10;;;;;;;0.98;0.38;;;3.70;99.90;;;;;;4879984;29;20060;-33
2023/03/07 13:04:42;;;;;;;7.07;1.23;;;3.80;99.90;;;;;;4876747;29;20524;-31
2023/03/07 13:07:12;;;;;;;1.38;0.50;;;3.90;99.90;;;;;;4880184;29;20653;-30
2023/03/07 13:09:44;;;;;;;2.88;0.90;;;3.90;99.90;;;;;;4879073;29;20189;-31